Marple, United Kingdom
Current Conditions -  °F | °C
As of 11:20 AM on Friday 24 Oct 2014 (Local Time) from EGCC Reporting Station
Broken Clouds Broken Clouds  
Wind Chill: 54°   Ceiling: 4100
Heat Index: 54°   Visibility: 6mi
Dew Point: 54°   Wind: 6mph
Humidity: 100%   Direction: 230°SW
Pressure: 29.91"   Gusts: NA
Location:  53.39°N, 2.06°W
Report Text: EGCC 241020Z 23005KT 200V280 9999 FEW018 SCT024 BKN041 12/12 Q1013
Loading
Personal Weather Stations






























Interactive Weather Map
Tropical Storm Tracking
New forecast layout! Learn more

10-Day Weather Forecast

Advertisements
Track Severe Weather on mobile